createdAt,value
2018-05-08T07:17:45.464Z,4260
2018-05-08T07:18:47.349Z,4256
2018-05-08T07:19:49.237Z,4256
2018-05-08T07:20:51.129Z,4248
2018-05-08T07:21:52.941Z,4240
2018-05-08T07:22:54.766Z,4236
2018-05-08T07:23:56.719Z,4232
2018-05-08T07:24:58.513Z,4228
2018-05-08T07:26:00.384Z,4224
2018-05-08T07:27:14.554Z,4220
2018-05-08T07:28:16.452Z,4220
2018-05-08T07:29:18.347Z,4224
2018-05-08T07:30:20.243Z,4220
2018-05-08T07:31:22.080Z,4224
2018-05-08T07:32:23.915Z,4220
2018-05-08T07:33:25.814Z,4224
2018-05-08T07:34:27.708Z,4224
2018-05-08T07:35:29.611Z,4228
2018-05-08T07:36:43.788Z,4228
2018-05-08T07:37:45.672Z,4224
2018-05-08T07:38:47.553Z,4228
2018-05-08T07:39:49.446Z,4228
2018-05-08T07:40:51.263Z,4232
2018-05-08T07:41:53.106Z,4232
2018-05-08T07:42:54.977Z,4232
2018-05-08T07:43:56.878Z,4232
2018-05-08T07:44:58.812Z,4228
2018-05-08T07:46:12.983Z,4224
2018-05-08T07:47:14.880Z,4216
2018-05-08T07:48:16.786Z,4212
2018-05-08T07:49:18.685Z,4208
2018-05-08T07:50:20.524Z,4208
2018-05-08T07:51:22.359Z,4204
2018-05-08T07:52:24.244Z,4204
2018-05-08T07:53:26.135Z,4204
2018-05-08T07:54:28.010Z,4204
2018-05-08T07:55:42.234Z,4196
2018-05-08T07:56:44.140Z,4188
2018-05-08T07:57:46.009Z,4184
2018-05-08T07:58:47.905Z,4180
2018-05-08T07:59:49.723Z,4184
2018-05-08T08:00:51.561Z,4172
2018-05-08T08:01:53.451Z,4168
2018-05-08T08:02:55.337Z,4160
2018-05-08T08:03:57.242Z,4164
2018-05-08T08:05:11.413Z,4168
2018-05-08T08:06:13.310Z,4168
2018-05-08T08:07:15.190Z,4172
2018-05-08T08:08:17.079Z,4188
2018-05-08T08:09:18.931Z,4192
2018-05-08T08:10:20.766Z,4188
2018-05-08T08:11:22.677Z,4188
2018-05-08T08:12:24.669Z,4188
2018-05-08T08:13:26.459Z,4192
2018-05-08T08:14:40.614Z,4188
2018-05-08T08:15:42.520Z,4184
2018-05-08T08:16:44.417Z,4180
2018-05-08T08:17:46.318Z,4188
2018-05-08T08:18:48.160Z,4180
2018-05-08T08:19:49.994Z,4172
2018-05-08T08:20:51.874Z,4164
2018-05-08T08:21:53.763Z,4156
2018-05-08T08:22:55.639Z,4152
2018-05-08T08:24:09.865Z,4148
2018-05-08T08:25:11.763Z,4148
2018-05-08T08:26:13.660Z,4136
2018-05-08T08:27:15.562Z,4136
2018-05-08T08:28:17.401Z,4128
2018-05-08T08:29:19.233Z,4120
2018-05-08T08:30:21.110Z,4104
2018-05-08T08:31:22.983Z,4092
2018-05-08T08:32:24.862Z,4096
2018-05-08T08:33:39.009Z,4088
2018-05-08T08:34:40.906Z,4080
2018-05-08T08:35:42.781Z,4084
2018-05-08T08:36:44.665Z,4084
2018-05-08T08:37:46.500Z,4084
2018-05-08T08:38:48.323Z,4088
2018-05-08T08:39:50.218Z,4084
2018-05-08T08:40:52.184Z,4080
2018-05-08T08:41:54.048Z,4084
2018-05-08T08:43:08.220Z,4076
2018-05-08T08:44:10.116Z,4068
2018-05-08T08:45:12.559Z,4068
2018-05-08T08:46:15.152Z,4064
2018-05-08T08:47:17.255Z,4060
2018-05-08T08:48:19.706Z,4056
2018-05-08T08:49:22.191Z,4048
2018-05-08T08:50:24.729Z,4052
2018-05-08T08:51:26.947Z,4056
2018-05-08T08:52:41.646Z,4064
2018-05-08T08:53:43.572Z,4076
2018-05-08T08:54:46.161Z,4080
2018-05-08T08:55:48.339Z,4088
2018-05-08T08:56:50.611Z,4080
2018-05-08T08:57:52.868Z,4068
2018-05-08T08:58:55.545Z,4060
2018-05-08T08:59:57.987Z,4064
2018-05-08T09:01:00.160Z,4064
2018-05-08T09:02:14.923Z,4060
2018-05-08T09:03:17.170Z,4060
2018-05-08T09:04:19.862Z,4060
2018-05-08T09:05:22.884Z,4048
2018-05-08T09:06:24.670Z,4032
2018-05-08T09:07:26.479Z,4020
2018-05-08T09:08:28.376Z,4008
2018-05-08T09:09:30.272Z,4012
2018-05-08T09:10:32.152Z,4024
2018-05-08T09:11:46.366Z,4012
2018-05-08T09:12:48.136Z,4000
2018-05-08T09:13:50.037Z,3980
2018-05-08T09:14:51.936Z,3972
2018-05-08T09:15:53.789Z,3960
2018-05-08T09:16:55.626Z,3948
2018-05-08T09:17:57.446Z,3952
2018-05-08T09:18:59.364Z,3948
2018-05-08T09:20:01.259Z,3952
2018-05-08T09:21:15.469Z,3960
2018-05-08T09:22:17.349Z,3968
2018-05-08T09:23:19.227Z,3956
2018-05-08T09:24:21.134Z,3964
2018-05-08T09:25:22.966Z,3972
2018-05-08T09:26:24.806Z,3972
2018-05-08T09:27:26.761Z,3976
2018-05-08T09:28:28.595Z,3984
2018-05-08T09:29:30.491Z,3988
2018-05-08T09:30:44.641Z,3988
2018-05-08T09:31:46.518Z,3988
2018-05-08T09:32:48.411Z,3988
2018-05-08T09:33:50.277Z,3988
2018-05-08T09:34:52.092Z,3992
2018-05-08T09:35:53.931Z,3976
2018-05-08T09:36:55.828Z,3968
2018-05-08T09:37:57.709Z,3968
2018-05-08T09:38:59.610Z,3964
2018-05-08T09:40:13.765Z,3964
2018-05-08T09:41:15.665Z,3968
2018-05-08T09:42:17.543Z,3976
2018-05-08T09:43:19.424Z,3976
2018-05-08T09:44:21.262Z,3972
2018-05-08T09:45:23.080Z,3980
2018-05-08T09:46:24.981Z,3972
2018-05-08T09:47:26.877Z,3972
2018-05-08T09:48:28.758Z,3972
2018-05-08T09:49:42.930Z,3972
2018-05-08T09:50:44.802Z,3972
2018-05-08T09:51:46.677Z,3976
2018-05-08T09:52:48.580Z,3980
2018-05-08T09:53:50.417Z,3988
2018-05-08T09:54:52.236Z,3996
2018-05-08T09:55:54.135Z,3984
2018-05-08T09:56:56.026Z,3976
2018-05-08T09:57:57.909Z,3980
2018-05-08T09:59:12.080Z,3980
2018-05-08T10:00:13.958Z,3984
2018-05-08T10:01:15.855Z,3988
2018-05-08T10:02:17.734Z,4004
2018-05-08T10:03:19.577Z,4008
2018-05-08T10:04:21.493Z,4012
2018-05-08T10:05:23.285Z,4024
2018-05-08T10:06:25.180Z,4032
2018-05-08T10:07:27.062Z,4044
2018-05-08T10:08:41.299Z,4040
2018-05-08T10:09:43.215Z,4032
2018-05-08T10:10:45.114Z,4036
2018-05-08T10:11:46.988Z,4020
2018-05-08T10:12:48.803Z,4012
2018-05-08T10:13:50.616Z,4016
2018-05-08T10:14:52.487Z,4016
2018-05-08T10:15:54.368Z,4028
2018-05-08T10:16:56.267Z,4032
2018-05-08T10:18:10.439Z,4048
2018-05-08T10:19:12.317Z,4068
2018-05-08T10:20:14.211Z,4080
2018-05-08T10:21:16.091Z,4092
2018-05-08T10:22:17.928Z,4096
2018-05-08T10:23:19.743Z,4108
2018-05-08T10:24:21.652Z,4116
2018-05-08T10:25:23.546Z,4120
2018-05-08T10:26:25.440Z,4112
2018-05-08T10:27:39.595Z,4120
2018-05-08T10:28:41.471Z,4124
2018-05-08T10:29:43.347Z,4120
2018-05-08T10:30:45.220Z,4120
2018-05-08T10:31:47.037Z,4128
2018-05-08T10:32:48.860Z,4136
2018-05-08T10:33:50.732Z,4140
2018-05-08T10:34:52.604Z,4144
2018-05-08T10:35:54.480Z,4140
2018-05-08T10:37:08.641Z,4144
2018-05-08T10:38:10.533Z,4144
2018-05-08T10:39:12.413Z,4144
2018-05-08T10:40:14.285Z,4152
2018-05-08T10:41:16.108Z,4156
2018-05-08T10:42:17.914Z,4160
2018-05-08T10:43:19.790Z,4164
2018-05-08T10:44:21.671Z,4164
2018-05-08T10:45:23.574Z,4172
2018-05-08T10:46:37.726Z,4168
2018-05-08T10:47:39.604Z,4168
2018-05-08T10:48:41.499Z,4172
2018-05-08T10:49:43.376Z,4176
2018-05-08T10:50:45.200Z,4180
2018-05-08T10:51:47.036Z,4188
2018-05-08T10:52:48.932Z,4192
2018-05-08T10:53:50.808Z,4200
2018-05-08T10:54:52.682Z,4208
2018-05-08T10:56:06.859Z,4220
2018-05-08T10:57:08.754Z,4224
2018-05-08T10:58:10.637Z,4232
2018-05-08T10:59:12.515Z,4236
2018-05-08T11:00:14.358Z,4240
2018-05-08T11:01:16.192Z,4248
2018-05-08T11:02:18.073Z,4256
2018-05-08T11:03:20.005Z,4268
2018-05-08T11:04:21.892Z,4280
2018-05-08T11:05:36.042Z,4304
2018-05-08T11:06:37.920Z,4324
2018-05-08T11:07:39.796Z,4336
2018-05-08T11:08:41.696Z,4340
2018-05-08T11:09:43.533Z,4352
2018-05-08T11:10:45.349Z,4360
2018-05-08T11:11:47.232Z,4376
2018-05-08T11:12:49.104Z,4388
2018-05-08T11:13:51.005Z,4392
2018-05-08T11:15:05.202Z,4408
2018-05-08T11:16:07.149Z,4420
2018-05-08T11:17:09.045Z,4428
2018-05-08T11:18:10.956Z,4444
2018-05-08T11:19:12.776Z,4448
2018-05-08T11:20:14.611Z,4444
2018-05-08T11:21:16.483Z,4440
2018-05-08T11:22:18.364Z,4444
2018-05-08T11:23:20.261Z,4444
2018-05-08T11:24:34.417Z,4440
2018-05-08T11:25:36.290Z,4436
2018-05-08T11:26:38.277Z,4436
2018-05-08T11:27:40.074Z,4432
2018-05-08T11:28:41.887Z,4424
2018-05-08T11:29:43.706Z,4412
2018-05-08T11:30:45.605Z,4408
2018-05-08T11:31:47.480Z,4408
2018-05-08T11:32:49.355Z,4408
2018-05-08T11:34:03.510Z,4408
2018-05-08T11:35:05.382Z,4404
2018-05-08T11:36:07.259Z,4404
2018-05-08T11:37:09.149Z,4404
2018-05-08T11:38:10.986Z,4404
2018-05-08T11:39:12.852Z,4392
2018-05-08T11:40:14.685Z,4384
2018-05-08T11:41:16.629Z,4384
2018-05-08T11:42:18.504Z,4376
2018-05-08T11:43:32.655Z,4364
2018-05-08T11:44:34.600Z,4368
2018-05-08T11:45:36.424Z,4360
2018-05-08T11:46:38.305Z,4340
2018-05-08T11:47:40.145Z,4332
2018-05-08T11:48:41.970Z,4340
2018-05-08T11:49:43.872Z,4340
2018-05-08T11:50:45.765Z,4332
2018-05-08T11:51:47.648Z,4324
2018-05-08T11:53:01.801Z,4344
2018-05-08T11:54:03.697Z,4344
2018-05-08T11:55:05.573Z,4348
2018-05-08T11:56:07.454Z,4356
2018-05-08T11:57:09.294Z,4360
2018-05-08T11:58:11.109Z,4360
2018-05-08T11:59:12.981Z,4364
2018-05-08T12:00:14.870Z,4380
2018-05-08T12:01:16.764Z,4392
2018-05-08T12:02:30.944Z,4408
2018-05-08T12:03:32.838Z,4416
2018-05-08T12:04:34.741Z,4432
2018-05-08T12:05:36.642Z,4448
2018-05-08T12:06:38.481Z,4456
2018-05-08T12:07:40.322Z,4472
2018-05-08T12:08:42.215Z,4480
2018-05-08T12:09:44.092Z,4484
2018-05-08T12:10:45.968Z,4492
2018-05-08T12:12:00.124Z,4492
2018-05-08T12:13:02.000Z,4496
2018-05-08T12:14:03.942Z,4496
2018-05-08T12:15:05.835Z,4492
2018-05-08T12:16:07.652Z,4492
2018-05-08T12:17:09.469Z,4496
2018-05-08T12:18:11.348Z,4488
2018-05-08T12:19:13.228Z,4488
2018-05-08T12:20:15.131Z,4480
2018-05-08T12:21:29.280Z,4488
2018-05-08T12:22:31.161Z,4484
2018-05-08T12:23:33.058Z,4484
2018-05-08T12:24:34.932Z,4492
2018-05-08T12:25:36.803Z,4492
2018-05-08T12:26:38.586Z,4492
2018-05-08T12:27:40.468Z,4488
2018-05-08T12:28:42.343Z,4488
2018-05-08T12:29:44.222Z,4496
2018-05-08T12:30:58.400Z,4500
2018-05-08T12:32:00.268Z,4516
2018-05-08T12:33:02.146Z,4524
2018-05-08T12:34:04.045Z,4520
2018-05-08T12:35:05.870Z,4512
2018-05-08T12:36:07.790Z,4512
2018-05-08T12:37:09.581Z,4520
2018-05-08T12:38:11.458Z,4528
2018-05-08T12:39:13.361Z,4544
2018-05-08T12:40:27.534Z,4560
2018-05-08T12:41:29.433Z,4564
2018-05-08T12:42:31.330Z,4568
2018-05-08T12:43:33.212Z,4560
2018-05-08T12:44:35.024Z,4552
2018-05-08T12:45:36.841Z,4556
2018-05-08T12:46:38.718Z,4576
2018-05-08T12:47:40.618Z,4584
2018-05-08T12:48:42.512Z,4592
2018-05-08T12:49:56.737Z,4620
2018-05-08T12:50:58.539Z,4644
2018-05-08T12:52:00.422Z,4656
2018-05-08T12:53:02.320Z,4664
2018-05-08T12:54:04.134Z,4664
2018-05-08T12:55:05.952Z,4668
2018-05-08T12:56:07.862Z,4664
2018-05-08T12:57:09.724Z,4668
2018-05-08T12:58:11.607Z,4664
2018-05-08T12:59:25.760Z,4652
2018-05-08T13:00:27.659Z,4648
2018-05-08T13:01:29.537Z,4648
2018-05-08T13:02:31.418Z,4644
2018-05-08T13:03:33.231Z,4644
2018-05-08T13:04:35.047Z,4648
2018-05-08T13:05:36.929Z,4660
2018-05-08T13:06:38.831Z,4672
2018-05-08T13:07:40.729Z,4680
2018-05-08T13:08:54.885Z,4684
2018-05-08T13:09:56.762Z,4680
2018-05-08T13:10:58.792Z,4676
2018-05-08T13:12:00.523Z,4660
2018-05-08T13:13:02.360Z,4652
2018-05-08T13:14:04.173Z,4632
2018-05-08T13:15:06.052Z,4628
2018-05-08T13:16:07.928Z,4620
2018-05-08T13:17:09.808Z,4620
2018-05-08T13:18:24.015Z,4636
2018-05-08T13:19:25.836Z,4648
2018-05-08T13:20:27.739Z,4656
2018-05-08T13:21:29.642Z,4656
2018-05-08T13:22:31.486Z,4652
2018-05-08T13:23:33.301Z,4648
2018-05-08T13:24:35.203Z,4664
2018-05-08T13:25:37.078Z,4664
2018-05-08T13:26:38.980Z,4672
2018-05-08T13:27:53.202Z,4688
2018-05-08T13:28:55.025Z,4696
2018-05-08T13:29:56.899Z,4716
2018-05-08T13:30:58.850Z,4740
2018-05-08T13:32:00.614Z,4748
2018-05-08T13:33:02.448Z,4752
2018-05-08T13:34:04.327Z,4752
2018-05-08T13:35:06.204Z,4756
2018-05-08T13:36:08.078Z,4760
2018-05-08T13:37:22.250Z,4764
2018-05-08T13:38:24.159Z,4776
2018-05-08T13:39:26.041Z,4792
2018-05-08T13:40:27.929Z,4804
2018-05-08T13:41:29.772Z,4808
2018-05-08T13:42:31.584Z,4820
2018-05-08T13:43:33.476Z,4828
2018-05-08T13:44:35.352Z,4836
2018-05-08T13:45:37.227Z,4832
2018-05-08T13:46:51.387Z,4840
2018-05-08T13:47:53.284Z,4848
2018-05-08T13:48:55.170Z,4860
2018-05-08T13:49:57.073Z,4880
2018-05-08T13:50:58.890Z,4884
2018-05-08T13:52:00.736Z,4900
2018-05-08T13:53:02.633Z,4904
2018-05-08T13:54:04.516Z,4916
2018-05-08T13:55:06.481Z,4928
2018-05-08T13:56:20.561Z,4940
2018-05-08T13:57:22.467Z,4948
2018-05-08T13:58:24.342Z,4956
2018-05-08T13:59:26.217Z,4972
2018-05-08T14:00:28.034Z,4980
2018-05-08T14:01:29.849Z,4976
2018-05-08T14:02:31.748Z,4968
2018-05-08T14:03:33.647Z,4964
2018-05-08T14:04:35.526Z,4968
2018-05-08T14:05:49.729Z,4976
2018-05-08T14:06:51.644Z,4988
2018-05-08T14:07:53.559Z,4996
2018-05-08T14:08:55.423Z,5008
2018-05-08T14:09:57.268Z,5016
2018-05-08T14:10:59.107Z,5024
2018-05-08T14:12:00.965Z,5040
2018-05-08T14:13:02.901Z,5060
2018-05-08T14:14:04.602Z,5076
2018-05-08T14:15:18.809Z,5088
2018-05-08T14:16:20.668Z,5100
2018-05-08T14:17:22.545Z,5100
2018-05-08T14:18:24.432Z,5108
2018-05-08T14:19:26.395Z,5112
2018-05-08T14:20:28.108Z,5116
2018-05-08T14:21:30.005Z,5120
2018-05-08T14:22:31.907Z,5132
2018-05-08T14:23:33.812Z,5156
2018-05-08T14:24:47.989Z,5164
2018-05-08T14:25:49.856Z,5184
2018-05-08T14:26:51.737Z,5196
2018-05-08T14:27:53.639Z,5196
2018-05-08T14:28:55.478Z,5212
2018-05-08T14:29:57.298Z,5220
2018-05-08T14:30:59.208Z,5232
2018-05-08T14:32:01.069Z,5240
2018-05-08T14:33:02.953Z,5248
2018-05-08T14:34:17.127Z,5256
2018-05-08T14:35:19.006Z,5272
2018-05-08T14:36:20.881Z,5280
2018-05-08T14:37:22.785Z,5284
2018-05-08T14:38:24.636Z,5288
2018-05-08T14:39:26.450Z,5288
2018-05-08T14:40:28.332Z,5300
2018-05-08T14:41:30.212Z,5308
2018-05-08T14:42:32.098Z,5316
2018-05-08T14:43:46.328Z,5340
2018-05-08T14:44:48.123Z,5352
2018-05-08T14:45:50.020Z,5360
2018-05-08T14:46:51.924Z,5384
2018-05-08T14:47:53.776Z,5400
2018-05-08T14:48:55.600Z,5408
2018-05-08T14:49:57.477Z,5424
2018-05-08T14:50:59.359Z,5444
2018-05-08T14:52:01.268Z,5460
2018-05-08T14:53:15.441Z,5468
2018-05-08T14:54:17.344Z,5476
2018-05-08T14:55:19.243Z,5472
2018-05-08T14:56:21.144Z,5460
2018-05-08T14:57:22.968Z,5452
2018-05-08T14:58:24.806Z,5444
2018-05-08T14:59:26.707Z,5444
2018-05-08T15:00:28.609Z,5444
2018-05-08T15:01:30.485Z,5440
2018-05-08T15:02:44.664Z,5440
2018-05-08T15:03:46.570Z,5448
2018-05-08T15:04:48.443Z,5452
2018-05-08T15:05:50.317Z,5468
2018-05-08T15:06:52.133Z,5488
2018-05-08T15:07:53.970Z,5504
2018-05-08T15:08:55.853Z,5532
2018-05-08T15:09:57.744Z,5548
2018-05-08T15:10:59.625Z,5552
2018-05-08T15:12:13.778Z,5560
2018-05-08T15:13:15.684Z,5556
2018-05-08T15:14:17.576Z,5552
2018-05-08T15:15:19.459Z,5540
2018-05-08T15:16:21.280Z,5520
2018-05-08T15:17:23.120Z,5508
2018-05-08T15:18:25.020Z,5500
2018-05-08T15:19:26.904Z,5492
2018-05-08T15:20:28.800Z,5488
2018-05-08T15:21:42.971Z,5492
2018-05-08T15:22:44.832Z,5496
2018-05-08T15:23:46.716Z,5504
2018-05-08T15:24:48.615Z,5508
2018-05-08T15:25:50.439Z,5516
2018-05-08T15:26:52.255Z,5520
2018-05-08T15:27:54.153Z,5532
2018-05-08T15:28:56.026Z,5536
2018-05-08T15:29:57.911Z,5540
2018-05-08T15:31:12.063Z,5548
2018-05-08T15:32:13.960Z,5556
2018-05-08T15:33:15.842Z,5564
2018-05-08T15:34:17.724Z,5584
2018-05-08T15:35:19.538Z,5604
2018-05-08T15:36:21.360Z,5616
2018-05-08T15:37:23.258Z,5628
2018-05-08T15:38:25.157Z,5644
2018-05-08T15:39:27.058Z,5648
2018-05-08T15:40:41.235Z,5656
2018-05-08T15:41:43.132Z,5660
2018-05-08T15:42:45.016Z,5664
2018-05-08T15:43:46.911Z,5664
2018-05-08T15:44:48.739Z,5664
2018-05-08T15:45:50.570Z,5656
2018-05-08T15:46:52.445Z,5652
2018-05-08T15:47:54.321Z,5648
2018-05-08T15:48:56.203Z,5648
2018-05-08T15:50:10.380Z,5660
2018-05-08T15:51:12.281Z,5664
2018-05-08T15:52:14.161Z,5656
2018-05-08T15:53:16.058Z,5660
2018-05-08T15:54:17.881Z,5656
2018-05-08T15:55:19.814Z,5652
2018-05-08T15:56:21.595Z,5644
2018-05-08T15:57:23.494Z,5636
2018-05-08T15:58:25.367Z,5632
2018-05-08T15:59:39.530Z,5624
2018-05-08T16:00:41.405Z,5620
2018-05-08T16:01:43.307Z,5620
2018-05-08T16:02:45.209Z,5616
2018-05-08T16:03:47.045Z,5612
2018-05-08T16:04:48.865Z,5616
2018-05-08T16:05:50.739Z,5608
2018-05-08T16:06:52.619Z,5596
2018-05-08T16:07:54.525Z,5576
2018-05-08T16:09:08.694Z,5556
2018-05-08T16:10:10.575Z,5540
2018-05-08T16:11:12.474Z,5528
2018-05-08T16:12:14.346Z,5524
2018-05-08T16:13:16.164Z,5516
2018-05-08T16:14:17.984Z,5500
2018-05-08T16:15:19.887Z,5496
2018-05-08T16:16:21.784Z,5500
2018-05-08T16:17:23.661Z,5504
2018-05-08T16:18:37.811Z,5500
2018-05-08T16:19:39.686Z,5492
2018-05-08T16:20:41.567Z,5480
2018-05-08T16:21:43.471Z,5460
2018-05-08T16:22:45.306Z,5452
2018-05-08T16:23:47.128Z,5448
2018-05-08T16:24:48.964Z,5452
2018-05-08T16:25:50.776Z,5468
2018-05-08T16:26:52.599Z,5468
2018-05-08T16:28:06.789Z,5488
2018-05-08T16:29:08.628Z,5504
2018-05-08T16:30:10.546Z,5516
2018-05-08T16:31:12.421Z,5532
2018-05-08T16:32:14.258Z,5556
2018-05-08T16:33:16.076Z,5568
2018-05-08T16:34:17.957Z,5584
2018-05-08T16:35:19.831Z,5608
2018-05-08T16:36:21.711Z,5616
2018-05-08T16:37:35.886Z,5632
2018-05-08T16:38:37.785Z,5616
2018-05-08T16:39:39.687Z,5596
2018-05-08T16:40:41.590Z,5580
2018-05-08T16:41:43.409Z,5576
2018-05-08T16:42:45.261Z,5580
2018-05-08T16:43:47.076Z,5584
2018-05-08T16:44:48.977Z,5580
2018-05-08T16:45:50.848Z,5548
2018-05-08T16:47:05.007Z,5532
2018-05-08T16:48:06.958Z,5540
2018-05-08T16:49:08.800Z,5540
2018-05-08T16:50:10.705Z,5508
2018-05-08T16:51:12.545Z,5488
2018-05-08T16:52:14.386Z,5472
2018-05-08T16:53:16.286Z,5460
2018-05-08T16:54:18.175Z,5428
2018-05-08T16:55:20.069Z,5380
2018-05-08T16:56:34.249Z,5324
2018-05-08T16:57:36.149Z,5288
2018-05-08T16:58:38.079Z,5260
2018-05-08T16:59:39.985Z,5244
2018-05-08T17:00:41.879Z,5236
2018-05-08T17:01:43.719Z,5220
2018-05-08T17:02:45.655Z,5192
2018-05-08T17:03:47.557Z,5168
2018-05-08T17:04:49.488Z,5132
2018-05-08T17:06:03.607Z,5088
2018-05-08T17:07:05.501Z,5052
2018-05-08T17:08:07.469Z,5020
2018-05-08T17:09:09.258Z,4992
2018-05-08T17:10:11.077Z,4952
2018-05-08T17:11:12.887Z,4912
2018-05-08T17:12:14.771Z,4872
2018-05-08T17:13:16.643Z,4832
2018-05-08T17:14:18.521Z,4788
2018-05-08T17:15:32.677Z,4740
2018-05-08T17:16:34.561Z,4692
2018-05-08T17:17:36.461Z,4652
2018-05-08T17:18:38.341Z,4612
2018-05-08T17:19:40.158Z,4572
2018-05-08T17:20:41.977Z,4532
2018-05-08T17:21:43.854Z,4480
2018-05-08T17:22:45.737Z,4440
2018-05-08T17:23:47.633Z,4396
2018-05-08T17:25:01.786Z,4348
2018-05-08T17:26:03.675Z,4308
2018-05-08T17:27:05.581Z,4264
2018-05-08T17:28:07.480Z,4212
2018-05-08T17:29:09.332Z,4164
2018-05-08T17:30:11.203Z,4124
2018-05-08T17:31:13.134Z,4108
2018-05-08T17:32:15.041Z,4120
2018-05-08T17:33:16.990Z,4340
2018-05-08T17:34:31.073Z,4772
2018-05-08T17:35:32.950Z,4676
2018-05-08T17:36:34.853Z,4444
2018-05-08T17:37:36.755Z,4656
2018-05-08T17:38:38.578Z,4844
2018-05-08T17:39:40.395Z,4508
2018-05-08T17:40:42.292Z,4408
2018-05-08T17:41:44.171Z,4600
2018-05-08T17:42:46.048Z,4584
2018-05-08T17:44:00.256Z,4472
2018-05-08T17:45:02.134Z,4420
2018-05-08T17:46:04.014Z,4212
2018-05-08T17:47:05.891Z,3976
2018-05-08T17:48:07.708Z,3800
2018-05-08T17:49:09.526Z,3672
2018-05-08T17:50:11.408Z,3508
2018-05-08T17:51:13.308Z,3480
2018-05-08T17:52:15.205Z,3416
2018-05-08T17:53:29.382Z,3116
2018-05-08T17:54:31.262Z,2988
2018-05-08T17:55:33.159Z,2892
2018-05-08T17:56:35.039Z,2704
2018-05-08T17:57:36.859Z,2520
2018-05-08T17:58:38.674Z,2356
2018-05-08T17:59:40.549Z,2192
2018-05-08T18:00:42.427Z,2176
2018-05-08T18:01:44.329Z,2140
2018-05-08T18:02:58.481Z,1948
2018-05-08T18:04:00.430Z,1896
2018-05-08T18:05:02.257Z,1804
2018-05-08T18:06:04.139Z,1684
2018-05-08T18:07:05.959Z,1576
2018-05-08T18:08:07.796Z,1512
2018-05-08T18:09:09.694Z,1444
2018-05-08T18:10:11.569Z,1396
2018-05-08T18:11:13.446Z,1328
2018-05-08T18:12:27.616Z,1208
2018-05-08T18:13:29.505Z,1100
2018-05-08T18:14:31.383Z,1024
2018-05-08T18:15:33.282Z,972
2018-05-08T18:16:35.088Z,892
2018-05-08T18:17:37.072Z,820
2018-05-08T18:18:38.773Z,728
2018-05-08T18:19:40.651Z,640
2018-05-08T18:20:42.549Z,564
2018-05-08T18:21:56.707Z,484
2018-05-08T18:22:58.598Z,420
2018-05-08T18:24:00.502Z,364
2018-05-08T18:25:02.402Z,320
2018-05-08T18:26:04.230Z,280
2018-05-08T18:27:06.048Z,244
2018-05-08T18:28:07.949Z,212
2018-05-08T18:29:09.843Z,188
2018-05-08T18:30:11.720Z,164
2018-05-08T18:31:25.872Z,136
2018-05-08T18:32:27.766Z,120
2018-05-08T18:33:29.640Z,112
2018-05-08T18:34:31.531Z,104
2018-05-08T18:35:33.352Z,96
2018-05-08T18:36:35.183Z,88
2018-05-08T18:37:37.074Z,80
2018-05-08T18:38:38.992Z,76
2018-05-08T18:39:40.865Z,72
2018-05-08T18:40:55.039Z,68
2018-05-08T18:41:56.946Z,60
2018-05-08T18:42:58.830Z,52
2018-05-08T18:44:00.812Z,44
2018-05-08T18:45:02.555Z,40
2018-05-08T18:46:04.364Z,32
2018-05-08T18:47:06.258Z,28
2018-05-08T18:48:08.136Z,20
2018-05-08T18:49:10.031Z,20
2018-05-08T18:50:24.205Z,16
2018-05-08T18:51:26.102Z,16
2018-05-08T18:52:27.970Z,12
2018-05-08T18:53:29.850Z,12
2018-05-08T18:54:31.661Z,8
2018-05-08T18:55:33.471Z,8
2018-05-08T18:56:35.368Z,8
2018-05-08T18:57:37.338Z,8
2018-05-08T18:58:39.135Z,4
2018-05-08T18:59:53.304Z,4
2018-05-08T19:00:55.200Z,4
2018-05-08T19:01:57.072Z,4
2018-05-08T19:02:58.974Z,4
2018-05-08T19:04:00.784Z,0
2018-05-08T19:05:02.619Z,4
2018-05-08T19:06:04.495Z,0
2018-05-08T19:07:06.481Z,0
2018-05-08T19:08:08.260Z,0
2018-05-08T19:09:22.416Z,4
2018-05-08T19:10:24.283Z,4
2018-05-08T19:11:26.175Z,0
2018-05-08T19:12:28.064Z,0
2018-05-08T19:13:29.869Z,0
2018-05-08T19:14:31.701Z,0
2018-05-08T19:15:33.575Z,0
2018-05-08T19:16:35.469Z,0
2018-05-08T19:17:37.363Z,0
2018-05-08T19:18:51.536Z,0
2018-05-08T19:19:53.423Z,0
2018-05-08T19:20:55.358Z,0
2018-05-08T19:21:57.170Z,0
2018-05-08T19:22:58.979Z,0
2018-05-08T19:24:00.797Z,0
2018-05-08T19:25:02.688Z,0
2018-05-08T19:26:04.564Z,0
2018-05-08T19:27:06.432Z,0
2018-05-08T19:28:20.604Z,0
2018-05-08T19:29:22.503Z,0
2018-05-08T19:30:24.369Z,0
2018-05-08T19:31:26.242Z,0
2018-05-08T19:32:28.055Z,0
2018-05-08T19:33:29.864Z,0
2018-05-08T19:34:31.738Z,0
2018-05-08T19:35:33.606Z,0
2018-05-08T19:36:35.478Z,0
2018-05-08T19:37:49.649Z,0
2018-05-08T19:38:51.543Z,0
2018-05-08T19:39:53.424Z,0
2018-05-08T19:40:55.294Z,0
2018-05-08T19:41:57.100Z,0
2018-05-08T19:42:58.912Z,0
2018-05-08T19:44:00.783Z,0
2018-05-08T19:45:02.713Z,0
2018-05-08T19:46:04.527Z,0
2018-05-08T19:47:18.699Z,0
2018-05-08T19:48:20.594Z,0
2018-05-08T19:49:22.465Z,0
2018-05-08T19:50:24.342Z,0
2018-05-08T19:51:26.152Z,0
2018-05-08T19:52:28.040Z,0
2018-05-08T19:53:29.827Z,0
2018-05-08T19:54:31.659Z,0
2018-05-08T19:55:33.471Z,0
2018-05-08T19:56:47.612Z,0
2018-05-08T19:57:49.555Z,0
2018-05-08T19:58:51.358Z,0
2018-05-08T19:59:53.257Z,0
2018-05-08T20:00:55.068Z,0
2018-05-08T20:01:56.899Z,0
2018-05-08T20:02:58.804Z,0
2018-05-08T20:04:00.667Z,0
2018-05-08T20:05:02.561Z,0
2018-05-08T20:06:16.703Z,0
2018-05-08T20:07:18.590Z,0
2018-05-08T20:08:20.465Z,0
2018-05-08T20:09:22.343Z,0
2018-05-08T20:10:24.173Z,0
2018-05-08T20:11:25.983Z,0
